sensor_id;sensor_type;location;lat;lon;timestamp;P1;durP1;ratioP1;P2;durP2;ratioP2
26906;SDS011;14472;56.880;16.658;2022-08-23T00:01:06;1.95;;;1.23;;
26906;SDS011;14472;56.880;16.658;2022-08-23T00:03:34;4.38;;;1.17;;
26906;SDS011;14472;56.880;16.658;2022-08-23T00:06:00;4.63;;;1.30;;
26906;SDS011;14472;56.880;16.658;2022-08-23T00:08:26;2.83;;;1.77;;
26906;SDS011;14472;56.880;16.658;2022-08-23T00:10:53;3.15;;;1.50;;
26906;SDS011;14472;56.880;16.658;2022-08-23T00:13:20;2.53;;;1.70;;
26906;SDS011;14472;56.880;16.658;2022-08-23T00:15:46;2.97;;;1.40;;
26906;SDS011;14472;56.880;16.658;2022-08-23T00:18:12;2.60;;;1.80;;
26906;SDS011;14472;56.880;16.658;2022-08-23T00:20:39;2.88;;;1.58;;
26906;SDS011;14472;56.880;16.658;2022-08-23T00:23:05;2.50;;;1.33;;
26906;SDS011;14472;56.880;16.658;2022-08-23T00:25:31;4.18;;;1.70;;
26906;SDS011;14472;56.880;16.658;2022-08-23T00:27:57;2.33;;;1.40;;
26906;SDS011;14472;56.880;16.658;2022-08-23T00:30:22;2.05;;;1.40;;
26906;SDS011;14472;56.880;16.658;2022-08-23T00:32:48;2.42;;;1.30;;
26906;SDS011;14472;56.880;16.658;2022-08-23T00:35:14;2.45;;;1.55;;
26906;SDS011;14472;56.880;16.658;2022-08-23T00:37:41;1.48;;;1.33;;
26906;SDS011;14472;56.880;16.658;2022-08-23T00:40:09;3.05;;;1.38;;
26906;SDS011;14472;56.880;16.658;2022-08-23T00:42:37;2.70;;;1.67;;
26906;SDS011;14472;56.880;16.658;2022-08-23T00:45:30;2.78;;;1.50;;
26906;SDS011;14472;56.880;16.658;2022-08-23T00:48:29;2.95;;;1.70;;
26906;SDS011;14472;56.880;16.658;2022-08-23T00:50:59;2.00;;;1.80;;
26906;SDS011;14472;56.880;16.658;2022-08-23T00:53:34;4.32;;;1.60;;
26906;SDS011;14472;56.880;16.658;2022-08-23T00:56:04;2.53;;;1.70;;
26906;SDS011;14472;56.880;16.658;2022-08-23T00:58:33;3.08;;;1.65;;
26906;SDS011;14472;56.880;16.658;2022-08-23T01:01:00;2.00;;;1.70;;
26906;SDS011;14472;56.880;16.658;2022-08-23T01:03:28;2.28;;;1.60;;
26906;SDS011;14472;56.880;16.658;2022-08-23T01:06:15;2.45;;;1.75;;
26906;SDS011;14472;56.880;16.658;2022-08-23T01:08:47;7.72;;;1.63;;
26906;SDS011;14472;56.880;16.658;2022-08-23T01:13:53;3.47;;;1.67;;
26906;SDS011;14472;56.880;16.658;2022-08-23T01:16:46;1.75;;;1.25;;
26906;SDS011;14472;56.880;16.658;2022-08-23T01:19:22;3.53;;;1.55;;
26906;SDS011;14472;56.880;16.658;2022-08-23T01:21:54;3.08;;;1.40;;
26906;SDS011;14472;56.880;16.658;2022-08-23T01:24:27;3.53;;;1.38;;
26906;SDS011;14472;56.880;16.658;2022-08-23T01:26:53;3.88;;;2.00;;
26906;SDS011;14472;56.880;16.658;2022-08-23T01:29:20;2.70;;;1.70;;
26906;SDS011;14472;56.880;16.658;2022-08-23T01:31:45;3.97;;;1.80;;
26906;SDS011;14472;56.880;16.658;2022-08-23T01:34:11;2.83;;;1.70;;
26906;SDS011;14472;56.880;16.658;2022-08-23T01:36:40;2.80;;;1.90;;
26906;SDS011;14472;56.880;16.658;2022-08-23T01:39:07;2.75;;;1.80;;
26906;SDS011;14472;56.880;16.658;2022-08-23T01:41:33;3.35;;;1.60;;
26906;SDS011;14472;56.880;16.658;2022-08-23T01:44:02;3.00;;;1.30;;
26906;SDS011;14472;56.880;16.658;2022-08-23T01:46:29;2.90;;;1.23;;
26906;SDS011;14472;56.880;16.658;2022-08-23T01:48:56;3.30;;;1.42;;
26906;SDS011;14472;56.880;16.658;2022-08-23T01:51:22;3.63;;;1.30;;
26906;SDS011;14472;56.880;16.658;2022-08-23T01:53:49;3.83;;;1.20;;
26906;SDS011;14472;56.880;16.658;2022-08-23T01:56:15;3.22;;;1.40;;
26906;SDS011;14472;56.880;16.658;2022-08-23T01:58:46;1.95;;;1.30;;
26906;SDS011;14472;56.880;16.658;2022-08-23T02:01:13;3.53;;;1.33;;
26906;SDS011;14472;56.880;16.658;2022-08-23T02:03:39;2.35;;;1.10;;
26906;SDS011;14472;56.880;16.658;2022-08-23T02:06:05;2.33;;;1.00;;
26906;SDS011;14472;56.880;16.658;2022-08-23T02:08:31;3.17;;;1.42;;
26906;SDS011;14472;56.880;16.658;2022-08-23T02:11:16;2.58;;;1.35;;
26906;SDS011;14472;56.880;16.658;2022-08-23T02:13:46;2.72;;;1.30;;
26906;SDS011;14472;56.880;16.658;2022-08-23T02:16:19;3.65;;;1.30;;
26906;SDS011;14472;56.880;16.658;2022-08-23T02:18:50;2.22;;;1.27;;
26906;SDS011;14472;56.880;16.658;2022-08-23T02:21:17;2.58;;;1.27;;
26906;SDS011;14472;56.880;16.658;2022-08-23T02:23:43;3.33;;;1.55;;
26906;SDS011;14472;56.880;16.658;2022-08-23T02:26:09;3.72;;;1.27;;
26906;SDS011;14472;56.880;16.658;2022-08-23T02:28:36;4.97;;;1.10;;
26906;SDS011;14472;56.880;16.658;2022-08-23T02:31:02;2.65;;;1.10;;
26906;SDS011;14472;56.880;16.658;2022-08-23T02:33:27;1.45;;;0.70;;
26906;SDS011;14472;56.880;16.658;2022-08-23T02:35:53;2.78;;;0.75;;
26906;SDS011;14472;56.880;16.658;2022-08-23T02:38:19;1.73;;;0.73;;
26906;SDS011;14472;56.880;16.658;2022-08-23T02:40:45;2.42;;;1.00;;
26906;SDS011;14472;56.880;16.658;2022-08-23T02:43:12;1.48;;;0.60;;
26906;SDS011;14472;56.880;16.658;2022-08-23T02:45:38;2.63;;;0.98;;
26906;SDS011;14472;56.880;16.658;2022-08-23T02:48:05;2.42;;;0.88;;
26906;SDS011;14472;56.880;16.658;2022-08-23T02:50:32;1.80;;;0.80;;
26906;SDS011;14472;56.880;16.658;2022-08-23T02:52:58;2.53;;;1.17;;
26906;SDS011;14472;56.880;16.658;2022-08-23T02:55:24;1.13;;;0.90;;
26906;SDS011;14472;56.880;16.658;2022-08-23T02:57:50;2.92;;;1.00;;
26906;SDS011;14472;56.880;16.658;2022-08-23T03:00:17;1.73;;;0.70;;
26906;SDS011;14472;56.880;16.658;2022-08-23T03:02:44;2.15;;;0.95;;
26906;SDS011;14472;56.880;16.658;2022-08-23T03:05:10;1.50;;;0.80;;
26906;SDS011;14472;56.880;16.658;2022-08-23T03:07:38;3.25;;;1.17;;
26906;SDS011;14472;56.880;16.658;2022-08-23T03:10:05;3.75;;;1.10;;
26906;SDS011;14472;56.880;16.658;2022-08-23T03:12:33;2.45;;;0.80;;
26906;SDS011;14472;56.880;16.658;2022-08-23T03:14:59;1.45;;;0.80;;
26906;SDS011;14472;56.880;16.658;2022-08-23T03:17:25;3.00;;;1.00;;
26906;SDS011;14472;56.880;16.658;2022-08-23T03:19:51;2.10;;;0.90;;
26906;SDS011;14472;56.880;16.658;2022-08-23T03:22:17;1.52;;;0.85;;
26906;SDS011;14472;56.880;16.658;2022-08-23T03:24:44;1.98;;;0.88;;
26906;SDS011;14472;56.880;16.658;2022-08-23T03:27:10;3.53;;;1.13;;
26906;SDS011;14472;56.880;16.658;2022-08-23T03:29:36;2.15;;;0.82;;
26906;SDS011;14472;56.880;16.658;2022-08-23T03:32:03;1.58;;;0.77;;
26906;SDS011;14472;56.880;16.658;2022-08-23T03:34:30;2.58;;;0.80;;
26906;SDS011;14472;56.880;16.658;2022-08-23T03:36:56;1.50;;;0.80;;
26906;SDS011;14472;56.880;16.658;2022-08-23T03:39:22;3.55;;;0.90;;
26906;SDS011;14472;56.880;16.658;2022-08-23T03:41:51;1.92;;;1.02;;
26906;SDS011;14472;56.880;16.658;2022-08-23T03:44:26;1.90;;;0.88;;
26906;SDS011;14472;56.880;16.658;2022-08-23T03:46:52;2.20;;;1.00;;
26906;SDS011;14472;56.880;16.658;2022-08-23T03:49:18;4.25;;;1.00;;
26906;SDS011;14472;56.880;16.658;2022-08-23T03:51:44;1.83;;;0.90;;
26906;SDS011;14472;56.880;16.658;2022-08-23T03:54:10;4.03;;;0.98;;
26906;SDS011;14472;56.880;16.658;2022-08-23T03:56:37;2.38;;;1.00;;
26906;SDS011;14472;56.880;16.658;2022-08-23T03:59:07;2.53;;;0.93;;
26906;SDS011;14472;56.880;16.658;2022-08-23T04:01:37;2.08;;;0.90;;
26906;SDS011;14472;56.880;16.658;2022-08-23T04:04:03;4.40;;;1.05;;
26906;SDS011;14472;56.880;16.658;2022-08-23T04:06:29;3.05;;;1.10;;
26906;SDS011;14472;56.880;16.658;2022-08-23T04:08:57;4.18;;;1.02;;
26906;SDS011;14472;56.880;16.658;2022-08-23T04:11:23;4.50;;;1.05;;
26906;SDS011;14472;56.880;16.658;2022-08-23T04:13:50;1.45;;;1.00;;
26906;SDS011;14472;56.880;16.658;2022-08-23T04:16:16;2.28;;;0.80;;
26906;SDS011;14472;56.880;16.658;2022-08-23T04:18:43;3.88;;;1.10;;
26906;SDS011;14472;56.880;16.658;2022-08-23T04:21:09;2.42;;;1.00;;
26906;SDS011;14472;56.880;16.658;2022-08-23T04:23:40;2.00;;;1.00;;
26906;SDS011;14472;56.880;16.658;2022-08-23T04:26:07;2.47;;;0.98;;
26906;SDS011;14472;56.880;16.658;2022-08-23T04:28:33;3.40;;;1.20;;
26906;SDS011;14472;56.880;16.658;2022-08-23T04:31:00;2.60;;;1.10;;
26906;SDS011;14472;56.880;16.658;2022-08-23T04:33:28;2.60;;;1.10;;
26906;SDS011;14472;56.880;16.658;2022-08-23T04:35:56;2.40;;;1.02;;
26906;SDS011;14472;56.880;16.658;2022-08-23T04:38:23;5.25;;;1.60;;
26906;SDS011;14472;56.880;16.658;2022-08-23T04:40:49;4.60;;;1.38;;
26906;SDS011;14472;56.880;16.658;2022-08-23T04:43:33;2.65;;;1.10;;
26906;SDS011;14472;56.880;16.658;2022-08-23T04:45:59;2.53;;;1.17;;
26906;SDS011;14472;56.880;16.658;2022-08-23T04:48:25;4.72;;;1.33;;
26906;SDS011;14472;56.880;16.658;2022-08-23T04:50:51;2.80;;;1.40;;
26906;SDS011;14472;56.880;16.658;2022-08-23T04:53:17;3.05;;;1.15;;
26906;SDS011;14472;56.880;16.658;2022-08-23T04:55:43;4.28;;;1.35;;
26906;SDS011;14472;56.880;16.658;2022-08-23T04:58:09;2.95;;;1.40;;
26906;SDS011;14472;56.880;16.658;2022-08-23T05:00:35;5.57;;;1.27;;
26906;SDS011;14472;56.880;16.658;2022-08-23T05:03:00;2.67;;;1.38;;
26906;SDS011;14472;56.880;16.658;2022-08-23T05:05:26;3.22;;;1.10;;
26906;SDS011;14472;56.880;16.658;2022-08-23T05:07:52;3.90;;;1.38;;
26906;SDS011;14472;56.880;16.658;2022-08-23T05:10:19;4.05;;;1.30;;
26906;SDS011;14472;56.880;16.658;2022-08-23T05:12:46;2.88;;;1.23;;
26906;SDS011;14472;56.880;16.658;2022-08-23T05:15:12;4.72;;;1.50;;
26906;SDS011;14472;56.880;16.658;2022-08-23T05:17:38;8.20;;;1.73;;
26906;SDS011;14472;56.880;16.658;2022-08-23T05:20:05;3.28;;;1.27;;
26906;SDS011;14472;56.880;16.658;2022-08-23T05:22:33;2.97;;;1.38;;
26906;SDS011;14472;56.880;16.658;2022-08-23T05:25:05;3.15;;;1.98;;
26906;SDS011;14472;56.880;16.658;2022-08-23T05:27:31;4.20;;;1.45;;
26906;SDS011;14472;56.880;16.658;2022-08-23T05:30:05;3.53;;;1.50;;
26906;SDS011;14472;56.880;16.658;2022-08-23T05:32:32;2.58;;;1.50;;
26906;SDS011;14472;56.880;16.658;2022-08-23T05:34:58;2.70;;;1.45;;
26906;SDS011;14472;56.880;16.658;2022-08-23T05:37:23;2.40;;;1.30;;
26906;SDS011;14472;56.880;16.658;2022-08-23T05:39:49;3.40;;;1.20;;
26906;SDS011;14472;56.880;16.658;2022-08-23T05:42:16;3.65;;;1.40;;
26906;SDS011;14472;56.880;16.658;2022-08-23T05:44:42;3.15;;;1.35;;
26906;SDS011;14472;56.880;16.658;2022-08-23T05:47:10;3.40;;;1.50;;
26906;SDS011;14472;56.880;16.658;2022-08-23T05:49:38;2.65;;;1.40;;
26906;SDS011;14472;56.880;16.658;2022-08-23T05:52:06;4.53;;;1.40;;
26906;SDS011;14472;56.880;16.658;2022-08-23T05:54:34;4.38;;;1.38;;
26906;SDS011;14472;56.880;16.658;2022-08-23T05:57:00;2.47;;;1.70;;
26906;SDS011;14472;56.880;16.658;2022-08-23T05:59:26;3.22;;;1.33;;
26906;SDS011;14472;56.880;16.658;2022-08-23T06:01:52;6.60;;;1.88;;
26906;SDS011;14472;56.880;16.658;2022-08-23T06:04:17;2.75;;;1.33;;
26906;SDS011;14472;56.880;16.658;2022-08-23T06:06:43;3.35;;;1.42;;
26906;SDS011;14472;56.880;16.658;2022-08-23T06:09:11;4.93;;;1.60;;
26906;SDS011;14472;56.880;16.658;2022-08-23T06:11:38;2.63;;;1.40;;
26906;SDS011;14472;56.880;16.658;2022-08-23T06:14:05;4.30;;;1.45;;
26906;SDS011;14472;56.880;16.658;2022-08-23T06:16:37;4.63;;;1.60;;
26906;SDS011;14472;56.880;16.658;2022-08-23T06:19:05;4.65;;;1.40;;
26906;SDS011;14472;56.880;16.658;2022-08-23T06:21:33;7.07;;;1.60;;
26906;SDS011;14472;56.880;16.658;2022-08-23T06:23:59;6.38;;;1.92;;
26906;SDS011;14472;56.880;16.658;2022-08-23T06:26:27;2.30;;;1.42;;
26906;SDS011;14472;56.880;16.658;2022-08-23T06:28:56;5.78;;;1.52;;
26906;SDS011;14472;56.880;16.658;2022-08-23T06:31:24;3.53;;;1.50;;
26906;SDS011;14472;56.880;16.658;2022-08-23T06:34:42;5.80;;;1.67;;
26906;SDS011;14472;56.880;16.658;2022-08-23T06:39:32;5.30;;;1.52;;
26906;SDS011;14472;56.880;16.658;2022-08-23T06:41:58;3.72;;;1.40;;
26906;SDS011;14472;56.880;16.658;2022-08-23T06:44:27;4.40;;;1.50;;
26906;SDS011;14472;56.880;16.658;2022-08-23T06:46:54;3.50;;;1.60;;
26906;SDS011;14472;56.880;16.658;2022-08-23T06:49:21;5.55;;;1.60;;
26906;SDS011;14472;56.880;16.658;2022-08-23T06:51:48;6.60;;;1.30;;
26906;SDS011;14472;56.880;16.658;2022-08-23T06:54:16;3.00;;;1.48;;
26906;SDS011;14472;56.880;16.658;2022-08-23T06:56:47;3.08;;;1.65;;
26906;SDS011;14472;56.880;16.658;2022-08-23T06:59:13;2.60;;;1.35;;
26906;SDS011;14472;56.880;16.658;2022-08-23T07:04:23;3.97;;;1.60;;
26906;SDS011;14472;56.880;16.658;2022-08-23T07:06:54;3.08;;;1.30;;
26906;SDS011;14472;56.880;16.658;2022-08-23T07:09:20;4.65;;;1.45;;
26906;SDS011;14472;56.880;16.658;2022-08-23T07:11:46;4.25;;;1.50;;
26906;SDS011;14472;56.880;16.658;2022-08-23T07:14:16;7.07;;;1.35;;
26906;SDS011;14472;56.880;16.658;2022-08-23T07:16:54;3.92;;;1.35;;
26906;SDS011;14472;56.880;16.658;2022-08-23T07:19:23;3.05;;;1.27;;
26906;SDS011;14472;56.880;16.658;2022-08-23T07:21:54;4.70;;;1.20;;
26906;SDS011;14472;56.880;16.658;2022-08-23T07:24:20;3.55;;;1.38;;
26906;SDS011;14472;56.880;16.658;2022-08-23T07:26:47;5.72;;;1.23;;
26906;SDS011;14472;56.880;16.658;2022-08-23T07:29:15;10.55;;;1.20;;
26906;SDS011;14472;56.880;16.658;2022-08-23T07:31:46;2.75;;;1.25;;
26906;SDS011;14472;56.880;16.658;2022-08-23T07:34:14;3.00;;;1.20;;
26906;SDS011;14472;56.880;16.658;2022-08-23T07:36:40;6.10;;;1.40;;
26906;SDS011;14472;56.880;16.658;2022-08-23T07:39:08;5.28;;;1.30;;
26906;SDS011;14472;56.880;16.658;2022-08-23T07:41:34;7.43;;;1.48;;
26906;SDS011;14472;56.880;16.658;2022-08-23T07:44:03;3.95;;;1.40;;
26906;SDS011;14472;56.880;16.658;2022-08-23T07:46:30;3.35;;;1.40;;
26906;SDS011;14472;56.880;16.658;2022-08-23T07:48:57;5.95;;;1.30;;
26906;SDS011;14472;56.880;16.658;2022-08-23T07:51:24;4.22;;;1.33;;
26906;SDS011;14472;56.880;16.658;2022-08-23T07:53:51;4.35;;;1.35;;
26906;SDS011;14472;56.880;16.658;2022-08-23T07:56:18;3.58;;;1.10;;
26906;SDS011;14472;56.880;16.658;2022-08-23T07:58:45;3.35;;;1.20;;
26906;SDS011;14472;56.880;16.658;2022-08-23T08:01:12;3.63;;;1.13;;
26906;SDS011;14472;56.880;16.658;2022-08-23T08:03:43;2.10;;;1.00;;
26906;SDS011;14472;56.880;16.658;2022-08-23T08:06:11;3.38;;;1.00;;
26906;SDS011;14472;56.880;16.658;2022-08-23T08:08:45;3.88;;;1.25;;
26906;SDS011;14472;56.880;16.658;2022-08-23T08:11:12;3.15;;;1.10;;
26906;SDS011;14472;56.880;16.658;2022-08-23T08:13:41;5.32;;;1.10;;
26906;SDS011;14472;56.880;16.658;2022-08-23T08:16:09;3.47;;;0.95;;
26906;SDS011;14472;56.880;16.658;2022-08-23T08:18:43;5.53;;;1.20;;
26906;SDS011;14472;56.880;16.658;2022-08-23T08:21:12;3.55;;;0.93;;
26906;SDS011;14472;56.880;16.658;2022-08-23T08:23:39;3.08;;;1.20;;
26906;SDS011;14472;56.880;16.658;2022-08-23T08:26:06;3.75;;;1.25;;
26906;SDS011;14472;56.880;16.658;2022-08-23T08:28:33;4.63;;;1.20;;
26906;SDS011;14472;56.880;16.658;2022-08-23T08:30:59;3.70;;;1.30;;
26906;SDS011;14472;56.880;16.658;2022-08-23T08:33:27;2.03;;;1.00;;
26906;SDS011;14472;56.880;16.658;2022-08-23T08:35:54;4.30;;;1.13;;
26906;SDS011;14472;56.880;16.658;2022-08-23T08:38:20;4.70;;;1.00;;
26906;SDS011;14472;56.880;16.658;2022-08-23T08:40:46;2.10;;;1.00;;
26906;SDS011;14472;56.880;16.658;2022-08-23T08:48:42;2.85;;;0.90;;
26906;SDS011;14472;56.880;16.658;2022-08-23T08:51:27;2.75;;;1.00;;
26906;SDS011;14472;56.880;16.658;2022-08-23T08:53:57;4.30;;;0.98;;
26906;SDS011;14472;56.880;16.658;2022-08-23T08:56:29;2.33;;;0.88;;
26906;SDS011;14472;56.880;16.658;2022-08-23T08:58:59;5.28;;;1.00;;
26906;SDS011;14472;56.880;16.658;2022-08-23T09:01:28;4.82;;;1.30;;
26906;SDS011;14472;56.880;16.658;2022-08-23T09:03:56;2.92;;;1.17;;
26906;SDS011;14472;56.880;16.658;2022-08-23T09:09:05;3.75;;;0.90;;
26906;SDS011;14472;56.880;16.658;2022-08-23T09:12:00;5.88;;;1.38;;
26906;SDS011;14472;56.880;16.658;2022-08-23T09:19:55;3.20;;;1.00;;
26906;SDS011;14472;56.880;16.658;2022-08-23T09:22:27;8.93;;;1.48;;
26906;SDS011;14472;56.880;16.658;2022-08-23T09:25:00;5.38;;;0.70;;
26906;SDS011;14472;56.880;16.658;2022-08-23T09:27:26;5.07;;;1.10;;
26906;SDS011;14472;56.880;16.658;2022-08-23T09:29:53;3.28;;;1.15;;
26906;SDS011;14472;56.880;16.658;2022-08-23T09:32:28;3.72;;;0.90;;
26906;SDS011;14472;56.880;16.658;2022-08-23T09:40:33;5.22;;;1.00;;
26906;SDS011;14472;56.880;16.658;2022-08-23T09:43:11;3.63;;;0.77;;
26906;SDS011;14472;56.880;16.658;2022-08-23T09:48:14;2.22;;;0.82;;
26906;SDS011;14472;56.880;16.658;2022-08-23T09:51:04;2.40;;;0.98;;
26906;SDS011;14472;56.880;16.658;2022-08-23T09:53:41;1.52;;;0.80;;
26906;SDS011;14472;56.880;16.658;2022-08-23T09:56:15;2.28;;;0.88;;
26906;SDS011;14472;56.880;16.658;2022-08-23T09:58:46;3.38;;;0.95;;
26906;SDS011;14472;56.880;16.658;2022-08-23T10:01:20;4.22;;;1.00;;
26906;SDS011;14472;56.880;16.658;2022-08-23T10:06:37;1.90;;;1.00;;
26906;SDS011;14472;56.880;16.658;2022-08-23T10:09:04;2.92;;;0.82;;
26906;SDS011;14472;56.880;16.658;2022-08-23T10:11:37;2.30;;;0.90;;
26906;SDS011;14472;56.880;16.658;2022-08-23T10:14:11;4.78;;;1.00;;
26906;SDS011;14472;56.880;16.658;2022-08-23T10:22:20;2.47;;;0.90;;
26906;SDS011;14472;56.880;16.658;2022-08-23T10:27:33;5.68;;;1.20;;
26906;SDS011;14472;56.880;16.658;2022-08-23T10:30:27;1.90;;;0.80;;
26906;SDS011;14472;56.880;16.658;2022-08-23T10:33:23;3.03;;;0.80;;
26906;SDS011;14472;56.880;16.658;2022-08-23T10:39:00;1.73;;;0.80;;
26906;SDS011;14472;56.880;16.658;2022-08-23T10:44:26;1.63;;;0.80;;
26906;SDS011;14472;56.880;16.658;2022-08-23T10:48:02;2.28;;;0.80;;
26906;SDS011;14472;56.880;16.658;2022-08-23T10:50:06;1.88;;;0.90;;
26906;SDS011;14472;56.880;16.658;2022-08-23T10:52:37;2.55;;;0.90;;
26906;SDS011;14472;56.880;16.658;2022-08-23T10:55:14;1.80;;;0.80;;
26906;SDS011;14472;56.880;16.658;2022-08-23T10:58:12;2.45;;;1.00;;
26906;SDS011;14472;56.880;16.658;2022-08-23T11:00:46;3.42;;;0.90;;
26906;SDS011;14472;56.880;16.658;2022-08-23T11:09:02;0.98;;;0.70;;
26906;SDS011;14472;56.880;16.658;2022-08-23T11:14:46;2.72;;;0.80;;
26906;SDS011;14472;56.880;16.658;2022-08-23T11:17:23;2.20;;;0.65;;
26906;SDS011;14472;56.880;16.658;2022-08-23T11:19:51;2.65;;;0.88;;
26906;SDS011;14472;56.880;16.658;2022-08-23T11:27:33;1.80;;;0.75;;
26906;SDS011;14472;56.880;16.658;2022-08-23T11:38:15;2.35;;;0.85;;
26906;SDS011;14472;56.880;16.658;2022-08-23T11:43:24;1.58;;;0.70;;
26906;SDS011;14472;56.880;16.658;2022-08-23T12:03:24;2.38;;;0.73;;
26906;SDS011;14472;56.880;16.658;2022-08-23T12:11:25;2.33;;;1.05;;
26906;SDS011;14472;56.880;16.658;2022-08-23T12:17:01;5.18;;;0.90;;
26906;SDS011;14472;56.880;16.658;2022-08-23T12:22:06;8.57;;;1.20;;
26906;SDS011;14472;56.880;16.658;2022-08-23T12:24:43;2.85;;;0.90;;
26906;SDS011;14472;56.880;16.658;2022-08-23T12:30:26;2.40;;;0.80;;
26906;SDS011;14472;56.880;16.658;2022-08-23T12:33:10;3.30;;;0.90;;
26906;SDS011;14472;56.880;16.658;2022-08-23T12:36:13;4.38;;;0.90;;
26906;SDS011;14472;56.880;16.658;2022-08-23T12:44:08;1.55;;;0.65;;
26906;SDS011;14472;56.880;16.658;2022-08-23T12:49:00;3.60;;;0.95;;
26906;SDS011;14472;56.880;16.658;2022-08-23T12:51:26;2.92;;;0.80;;
26906;SDS011;14472;56.880;16.658;2022-08-23T12:53:53;1.92;;;0.93;;
26906;SDS011;14472;56.880;16.658;2022-08-23T12:56:24;4.88;;;1.30;;
26906;SDS011;14472;56.880;16.658;2022-08-23T12:58:54;8.70;;;1.52;;
26906;SDS011;14472;56.880;16.658;2022-08-23T13:03:53;6.47;;;1.00;;
26906;SDS011;14472;56.880;16.658;2022-08-23T13:06:42;3.22;;;0.80;;
26906;SDS011;14472;56.880;16.658;2022-08-23T13:09:16;2.42;;;0.80;;
26906;SDS011;14472;56.880;16.658;2022-08-23T13:11:46;2.33;;;0.88;;
26906;SDS011;14472;56.880;16.658;2022-08-23T13:14:22;1.80;;;1.08;;
26906;SDS011;14472;56.880;16.658;2022-08-23T13:17:11;5.70;;;0.98;;
26906;SDS011;14472;56.880;16.658;2022-08-23T13:19:42;5.15;;;1.10;;
26906;SDS011;14472;56.880;16.658;2022-08-23T13:32:47;7.18;;;0.90;;
26906;SDS011;14472;56.880;16.658;2022-08-23T13:40:38;4.47;;;1.23;;
26906;SDS011;14472;56.880;16.658;2022-08-23T13:43:25;1.48;;;0.80;;
26906;SDS011;14472;56.880;16.658;2022-08-23T13:45:52;9.52;;;1.30;;
26906;SDS011;14472;56.880;16.658;2022-08-23T13:48:24;2.83;;;1.00;;
26906;SDS011;14472;56.880;16.658;2022-08-23T13:51:15;2.63;;;0.93;;
26906;SDS011;14472;56.880;16.658;2022-08-23T13:53:41;4.55;;;1.00;;
26906;SDS011;14472;56.880;16.658;2022-08-23T13:56:06;3.58;;;1.17;;
26906;SDS011;14472;56.880;16.658;2022-08-23T13:58:33;5.85;;;1.15;;
26906;SDS011;14472;56.880;16.658;2022-08-23T14:00:59;6.28;;;1.17;;
26906;SDS011;14472;56.880;16.658;2022-08-23T14:03:28;3.47;;;0.90;;
26906;SDS011;14472;56.880;16.658;2022-08-23T14:05:57;2.95;;;0.98;;
26906;SDS011;14472;56.880;16.658;2022-08-23T14:08:23;3.13;;;0.90;;
26906;SDS011;14472;56.880;16.658;2022-08-23T14:10:49;2.03;;;0.93;;
26906;SDS011;14472;56.880;16.658;2022-08-23T14:13:15;2.80;;;1.10;;
26906;SDS011;14472;56.880;16.658;2022-08-23T14:15:42;1.75;;;0.90;;
26906;SDS011;14472;56.880;16.658;2022-08-23T14:18:10;3.55;;;0.98;;
26906;SDS011;14472;56.880;16.658;2022-08-23T14:20:36;2.67;;;1.00;;
26906;SDS011;14472;56.880;16.658;2022-08-23T14:23:03;4.47;;;0.80;;
26906;SDS011;14472;56.880;16.658;2022-08-23T14:25:29;3.38;;;1.45;;
26906;SDS011;14472;56.880;16.658;2022-08-23T14:27:55;2.90;;;0.88;;
26906;SDS011;14472;56.880;16.658;2022-08-23T14:30:32;2.22;;;0.95;;
26906;SDS011;14472;56.880;16.658;2022-08-23T14:33:02;2.55;;;0.90;;
26906;SDS011;14472;56.880;16.658;2022-08-23T14:35:28;2.67;;;1.00;;
26906;SDS011;14472;56.880;16.658;2022-08-23T14:37:54;3.70;;;0.90;;
26906;SDS011;14472;56.880;16.658;2022-08-23T14:40:20;2.50;;;0.88;;
26906;SDS011;14472;56.880;16.658;2022-08-23T14:42:46;1.88;;;1.10;;
26906;SDS011;14472;56.880;16.658;2022-08-23T14:45:14;2.63;;;1.00;;
26906;SDS011;14472;56.880;16.658;2022-08-23T14:47:41;3.60;;;1.30;;
26906;SDS011;14472;56.880;16.658;2022-08-23T14:50:08;4.55;;;1.10;;
26906;SDS011;14472;56.880;16.658;2022-08-23T14:52:36;4.97;;;1.20;;
26906;SDS011;14472;56.880;16.658;2022-08-23T14:55:04;3.88;;;0.95;;
26906;SDS011;14472;56.880;16.658;2022-08-23T14:57:30;3.95;;;1.10;;
26906;SDS011;14472;56.880;16.658;2022-08-23T14:59:56;4.35;;;1.10;;
26906;SDS011;14472;56.880;16.658;2022-08-23T15:02:23;2.25;;;1.15;;
26906;SDS011;14472;56.880;16.658;2022-08-23T15:04:51;2.00;;;0.90;;
26906;SDS011;14472;56.880;16.658;2022-08-23T15:07:18;2.22;;;0.90;;
26906;SDS011;14472;56.880;16.658;2022-08-23T15:09:47;1.85;;;1.00;;
26906;SDS011;14472;56.880;16.658;2022-08-23T15:12:15;2.53;;;0.90;;
26906;SDS011;14472;56.880;16.658;2022-08-23T15:14:42;3.80;;;1.27;;
26906;SDS011;14472;56.880;16.658;2022-08-23T15:17:08;3.13;;;1.10;;
26906;SDS011;14472;56.880;16.658;2022-08-23T15:19:34;3.55;;;1.13;;
26906;SDS011;14472;56.880;16.658;2022-08-23T15:21:59;2.70;;;0.98;;
26906;SDS011;14472;56.880;16.658;2022-08-23T15:24:25;1.85;;;1.00;;
26906;SDS011;14472;56.880;16.658;2022-08-23T15:26:51;2.97;;;0.93;;
26906;SDS011;14472;56.880;16.658;2022-08-23T15:29:22;3.22;;;1.23;;
26906;SDS011;14472;56.880;16.658;2022-08-23T15:31:52;3.95;;;1.20;;
26906;SDS011;14472;56.880;16.658;2022-08-23T15:34:19;4.90;;;1.15;;
26906;SDS011;14472;56.880;16.658;2022-08-23T15:36:45;4.28;;;1.10;;
26906;SDS011;14472;56.880;16.658;2022-08-23T15:39:10;3.20;;;1.17;;
26906;SDS011;14472;56.880;16.658;2022-08-23T15:41:36;3.63;;;1.33;;
26906;SDS011;14472;56.880;16.658;2022-08-23T15:44:02;2.22;;;1.02;;
26906;SDS011;14472;56.880;16.658;2022-08-23T15:46:28;3.50;;;1.05;;
26906;SDS011;14472;56.880;16.658;2022-08-23T15:48:58;5.25;;;1.10;;
26906;SDS011;14472;56.880;16.658;2022-08-23T15:51:44;2.40;;;0.82;;
26906;SDS011;14472;56.880;16.658;2022-08-23T15:54:10;3.38;;;1.10;;
26906;SDS011;14472;56.880;16.658;2022-08-23T15:56:40;3.17;;;1.20;;
26906;SDS011;14472;56.880;16.658;2022-08-23T15:59:12;2.38;;;1.10;;
26906;SDS011;14472;56.880;16.658;2022-08-23T16:01:40;3.92;;;1.20;;
26906;SDS011;14472;56.880;16.658;2022-08-23T16:04:06;2.20;;;1.10;;
26906;SDS011;14472;56.880;16.658;2022-08-23T16:06:33;3.75;;;1.25;;
26906;SDS011;14472;56.880;16.658;2022-08-23T16:09:02;4.00;;;1.10;;
26906;SDS011;14472;56.880;16.658;2022-08-23T16:11:29;3.67;;;0.90;;
26906;SDS011;14472;56.880;16.658;2022-08-23T16:13:55;3.17;;;0.82;;
26906;SDS011;14472;56.880;16.658;2022-08-23T16:18:53;1.98;;;1.10;;
26906;SDS011;14472;56.880;16.658;2022-08-23T16:21:19;11.43;;;10.30;;
26906;SDS011;14472;56.880;16.658;2022-08-23T16:23:47;11.10;;;8.73;;
26906;SDS011;14472;56.880;16.658;2022-08-23T16:26:14;13.95;;;12.13;;
26906;SDS011;14472;56.880;16.658;2022-08-23T16:28:47;8.23;;;5.80;;
26906;SDS011;14472;56.880;16.658;2022-08-23T16:31:15;5.15;;;2.58;;
26906;SDS011;14472;56.880;16.658;2022-08-23T16:33:42;3.78;;;1.13;;
26906;SDS011;14472;56.880;16.658;2022-08-23T16:36:08;1.73;;;1.05;;
26906;SDS011;14472;56.880;16.658;2022-08-23T16:38:35;5.32;;;0.98;;
26906;SDS011;14472;56.880;16.658;2022-08-23T16:41:01;2.85;;;1.08;;
26906;SDS011;14472;56.880;16.658;2022-08-23T16:43:27;2.65;;;0.90;;
26906;SDS011;14472;56.880;16.658;2022-08-23T16:45:53;2.67;;;0.95;;
26906;SDS011;14472;56.880;16.658;2022-08-23T16:48:19;4.05;;;0.95;;
26906;SDS011;14472;56.880;16.658;2022-08-23T16:50:44;4.63;;;0.90;;
26906;SDS011;14472;56.880;16.658;2022-08-23T16:53:10;2.47;;;0.82;;
26906;SDS011;14472;56.880;16.658;2022-08-23T16:55:37;2.00;;;0.93;;
26906;SDS011;14472;56.880;16.658;2022-08-23T16:58:04;1.98;;;0.85;;